sensor_id;sensor_type;location;lat;lon;timestamp;pressure;altitude;pressure_sealevel;temperature;humidity
4398;BME280;2213;49.720;7.296;2023-03-01T00:00:43;99100.41;;;-0.58;100.00
4398;BME280;2213;49.720;7.296;2023-03-01T00:03:14;99096.19;;;-0.59;100.00
4398;BME280;2213;49.720;7.296;2023-03-01T00:05:45;99099.06;;;-0.63;100.00
4398;BME280;2213;49.720;7.296;2023-03-01T00:08:15;99095.66;;;-0.64;100.00
4398;BME280;2213;49.720;7.296;2023-03-01T00:10:45;99094.81;;;-0.64;100.00
4398;BME280;2213;49.720;7.296;2023-03-01T00:13:14;99100.13;;;-0.67;100.00
4398;BME280;2213;49.720;7.296;2023-03-01T00:15:44;99099.56;;;-0.72;100.00
4398;BME280;2213;49.720;7.296;2023-03-01T00:18:13;99094.53;;;-0.74;100.00
4398;BME280;2213;49.720;7.296;2023-03-01T00:20:49;99101.41;;;-0.74;100.00
4398;BME280;2213;49.720;7.296;2023-03-01T00:23:20;99104.06;;;-0.76;100.00
4398;BME280;2213;49.720;7.296;2023-03-01T00:25:51;99104.06;;;-0.76;100.00
4398;BME280;2213;49.720;7.296;2023-03-01T00:28:21;99100.50;;;-0.87;100.00
4398;BME280;2213;49.720;7.296;2023-03-01T00:30:51;99108.63;;;-0.95;100.00
4398;BME280;2213;49.720;7.296;2023-03-01T00:33:19;99109.78;;;-1.01;100.00
4398;BME280;2213;49.720;7.296;2023-03-01T00:35:49;99105.31;;;-0.97;100.00
4398;BME280;2213;49.720;7.296;2023-03-01T00:38:20;99108.63;;;-0.95;100.00
4398;BME280;2213;49.720;7.296;2023-03-01T00:40:49;99106.78;;;-0.93;100.00
4398;BME280;2213;49.720;7.296;2023-03-01T00:43:19;99106.25;;;-0.98;100.00
4398;BME280;2213;49.720;7.296;2023-03-01T00:45:48;99103.88;;;-1.01;100.00
4398;BME280;2213;49.720;7.296;2023-03-01T00:48:17;99094.88;;;-1.08;100.00
4398;BME280;2213;49.720;7.296;2023-03-01T00:50:47;99102.28;;;-1.04;100.00
4398;BME280;2213;49.720;7.296;2023-03-01T00:53:16;99099.63;;;-1.02;100.00
4398;BME280;2213;49.720;7.296;2023-03-01T00:55:46;99102.84;;;-0.98;100.00
4398;BME280;2213;49.720;7.296;2023-03-01T00:58:15;99096.72;;;-0.96;100.00
4398;BME280;2213;49.720;7.296;2023-03-01T01:00:44;99094.25;;;-0.97;100.00
4398;BME280;2213;49.720;7.296;2023-03-01T01:03:13;99094.25;;;-0.97;100.00
4398;BME280;2213;49.720;7.296;2023-03-01T01:05:43;99094.03;;;-1.09;100.00
4398;BME280;2213;49.720;7.296;2023-03-01T01:08:12;99087.81;;;-1.05;100.00
4398;BME280;2213;49.720;7.296;2023-03-01T01:10:43;99092.94;;;-1.05;100.00
4398;BME280;2213;49.720;7.296;2023-03-01T01:13:15;99088.78;;;-1.07;100.00
4398;BME280;2213;49.720;7.296;2023-03-01T01:15:45;99094.09;;;-1.10;100.00
4398;BME280;2213;49.720;7.296;2023-03-01T01:18:14;99083.47;;;-1.18;100.00
4398;BME280;2213;49.720;7.296;2023-03-01T01:20:45;99084.69;;;-1.10;100.00
4398;BME280;2213;49.720;7.296;2023-03-01T01:23:14;99083.19;;;-1.14;100.00
4398;BME280;2213;49.720;7.296;2023-03-01T01:25:43;99079.66;;;-1.11;100.00
4398;BME280;2213;49.720;7.296;2023-03-01T01:28:14;99079.66;;;-1.11;100.00
4398;BME280;2213;49.720;7.296;2023-03-01T01:30:44;99079.06;;;-1.16;100.00
4398;BME280;2213;49.720;7.296;2023-03-01T01:33:15;99073.00;;;-1.29;100.00
4398;BME280;2213;49.720;7.296;2023-03-01T01:35:45;99065.97;;;-1.26;100.00
4398;BME280;2213;49.720;7.296;2023-03-01T01:38:15;99063.81;;;-1.33;100.00
4398;BME280;2213;49.720;7.296;2023-03-01T01:40:45;99056.84;;;-1.31;100.00
4398;BME280;2213;49.720;7.296;2023-03-01T01:43:21;99053.00;;;-1.38;100.00
4398;BME280;2213;49.720;7.296;2023-03-01T01:45:55;99049.44;;;-1.36;100.00
4398;BME280;2213;49.720;7.296;2023-03-01T01:48:34;99037.28;;;-1.32;100.00
4398;BME280;2213;49.720;7.296;2023-03-01T01:51:13;99041.66;;;-1.34;100.00
4398;BME280;2213;49.720;7.296;2023-03-01T01:53:48;99035.63;;;-1.33;100.00
4398;BME280;2213;49.720;7.296;2023-03-01T01:56:23;99037.28;;;-1.32;100.00
4398;BME280;2213;49.720;7.296;2023-03-01T01:58:56;99028.00;;;-1.35;100.00
4398;BME280;2213;49.720;7.296;2023-03-01T02:01:25;99031.69;;;-1.39;100.00
4398;BME280;2213;49.720;7.296;2023-03-01T02:03:56;99032.47;;;-1.38;100.00
4398;BME280;2213;49.720;7.296;2023-03-01T02:06:31;99031.75;;;-1.40;100.00
4398;BME280;2213;49.720;7.296;2023-03-01T02:09:07;99031.50;;;-1.36;100.00
4398;BME280;2213;49.720;7.296;2023-03-01T02:11:41;99024.78;;;-1.38;100.00
4398;BME280;2213;49.720;7.296;2023-03-01T02:14:13;99020.84;;;-1.44;100.00
4398;BME280;2213;49.720;7.296;2023-03-01T02:16:43;99017.38;;;-1.43;100.00
4398;BME280;2213;49.720;7.296;2023-03-01T02:19:28;99009.53;;;-1.56;100.00
4398;BME280;2213;49.720;7.296;2023-03-01T02:22:10;99003.44;;;-1.53;100.00
4398;BME280;2213;49.720;7.296;2023-03-01T02:24:57;98999.69;;;-1.47;100.00
4398;BME280;2213;49.720;7.296;2023-03-01T02:27:38;98996.47;;;-1.51;100.00
4398;BME280;2213;49.720;7.296;2023-03-01T02:30:12;98998.63;;;-1.59;100.00
4398;BME280;2213;49.720;7.296;2023-03-01T02:32:43;99004.59;;;-1.59;100.00
4398;BME280;2213;49.720;7.296;2023-03-01T02:35:16;99000.84;;;-1.67;100.00
4398;BME280;2213;49.720;7.296;2023-03-01T02:37:47;98998.63;;;-1.59;100.00
4398;BME280;2213;49.720;7.296;2023-03-01T02:40:19;98995.09;;;-1.57;100.00
4398;BME280;2213;49.720;7.296;2023-03-01T02:42:54;98990.69;;;-1.55;100.00
4398;BME280;2213;49.720;7.296;2023-03-01T02:45:27;98990.88;;;-1.58;100.00
4398;BME280;2213;49.720;7.296;2023-03-01T02:47:57;98993.78;;;-1.64;100.00
4398;BME280;2213;49.720;7.296;2023-03-01T02:50:54;98986.56;;;-1.57;100.00
4398;BME280;2213;49.720;7.296;2023-03-01T02:53:39;98982.41;;;-1.60;100.00
4398;BME280;2213;49.720;7.296;2023-03-01T02:56:11;98985.38;;;-1.52;100.00
4398;BME280;2213;49.720;7.296;2023-03-01T02:58:43;98982.75;;;-1.50;100.00
4398;BME280;2213;49.720;7.296;2023-03-01T03:01:17;98983.38;;;-1.46;100.00
4398;BME280;2213;49.720;7.296;2023-03-01T03:03:46;98981.72;;;-1.47;100.00
4398;BME280;2213;49.720;7.296;2023-03-01T03:06:16;98979.34;;;-1.50;100.00
4398;BME280;2213;49.720;7.296;2023-03-01T03:08:47;98973.13;;;-1.46;100.00
4398;BME280;2213;49.720;7.296;2023-03-01T03:11:17;98966.91;;;-1.42;100.00
4398;BME280;2213;49.720;7.296;2023-03-01T03:13:47;98971.28;;;-1.44;100.00
4398;BME280;2213;49.720;7.296;2023-03-01T03:16:17;98960.50;;;-1.49;100.00
4398;BME280;2213;49.720;7.296;2023-03-01T03:18:48;98963.06;;;-1.49;100.00
4398;BME280;2213;49.720;7.296;2023-03-01T03:21:18;98956.28;;;-1.50;100.00
4398;BME280;2213;49.720;7.296;2023-03-01T03:23:46;98943.53;;;-1.52;100.00
4398;BME280;2213;49.720;7.296;2023-03-01T03:26:16;98945.84;;;-1.47;100.00
4398;BME280;2213;49.720;7.296;2023-03-01T03:28:47;98946.19;;;-1.54;100.00
4398;BME280;2213;49.720;7.296;2023-03-01T03:31:18;98937.41;;;-1.49;100.00
4398;BME280;2213;49.720;7.296;2023-03-01T03:33:48;98930.25;;;-1.59;100.00
4398;BME280;2213;49.720;7.296;2023-03-01T03:36:19;98934.94;;;-1.51;100.00
4398;BME280;2213;49.720;7.296;2023-03-01T03:38:48;98929.06;;;-1.53;100.00
4398;BME280;2213;49.720;7.296;2023-03-01T03:41:17;98917.06;;;-1.53;100.00
4398;BME280;2213;49.720;7.296;2023-03-01T03:43:46;98923.19;;;-1.55;100.00
4398;BME280;2213;49.720;7.296;2023-03-01T03:46:18;98918.91;;;-1.55;100.00
4398;BME280;2213;49.720;7.296;2023-03-01T03:48:47;98925.75;;;-1.55;100.00
4398;BME280;2213;49.720;7.296;2023-03-01T03:51:18;98920.56;;;-1.54;100.00
4398;BME280;2213;49.720;7.296;2023-03-01T03:53:47;98918.91;;;-1.55;100.00
4398;BME280;2213;49.720;7.296;2023-03-01T03:56:16;98918.91;;;-1.55;100.00
4398;BME280;2213;49.720;7.296;2023-03-01T03:58:47;98918.81;;;-1.53;100.00
4398;BME280;2213;49.720;7.296;2023-03-01T04:01:18;98918.81;;;-1.53;100.00
4398;BME280;2213;49.720;7.296;2023-03-01T04:03:48;98918.00;;;-1.54;100.00
4398;BME280;2213;49.720;7.296;2023-03-01T04:06:23;98906.00;;;-1.53;100.00
4398;BME280;2213;49.720;7.296;2023-03-01T04:08:52;98916.06;;;-1.50;100.00
4398;BME280;2213;49.720;7.296;2023-03-01T04:11:26;98905.91;;;-1.52;100.00
4398;BME280;2213;49.720;7.296;2023-03-01T04:13:58;98904.88;;;-1.49;100.00
4398;BME280;2213;49.720;7.296;2023-03-01T04:16:29;98910.84;;;-1.48;100.00
4398;BME280;2213;49.720;7.296;2023-03-01T04:19:00;98906.47;;;-1.46;100.00
4398;BME280;2213;49.720;7.296;2023-03-01T04:21:29;98907.28;;;-1.46;100.00
4398;BME280;2213;49.720;7.296;2023-03-01T04:23:59;98901.16;;;-1.43;100.00
4398;BME280;2213;49.720;7.296;2023-03-01T04:26:31;98898.41;;;-1.40;100.00
4398;BME280;2213;49.720;7.296;2023-03-01T04:29:01;98896.56;;;-1.38;100.00
4398;BME280;2213;49.720;7.296;2023-03-01T04:31:33;98894.09;;;-1.40;100.00
4398;BME280;2213;49.720;7.296;2023-03-01T04:34:03;98889.59;;;-1.36;100.00
4398;BME280;2213;49.720;7.296;2023-03-01T04:36:32;98897.19;;;-1.35;100.00
4398;BME280;2213;49.720;7.296;2023-03-01T04:39:06;98893.00;;;-1.36;100.00
4398;BME280;2213;49.720;7.296;2023-03-01T04:41:40;98887.69;;;-1.33;100.00
4398;BME280;2213;49.720;7.296;2023-03-01T04:44:12;98895.09;;;-1.28;100.00
4398;BME280;2213;49.720;7.296;2023-03-01T04:46:44;98900.22;;;-1.28;100.00
4398;BME280;2213;49.720;7.296;2023-03-01T04:49:14;98895.84;;;-1.26;100.00
4398;BME280;2213;49.720;7.296;2023-03-01T04:51:43;98902.50;;;-1.24;100.00
4398;BME280;2213;49.720;7.296;2023-03-01T04:54:13;98899.88;;;-1.22;100.00
4398;BME280;2213;49.720;7.296;2023-03-01T04:56:43;98902.25;;;-1.19;100.00
4398;BME280;2213;49.720;7.296;2023-03-01T04:59:13;98900.41;;;-1.17;100.00
4398;BME280;2213;49.720;7.296;2023-03-01T05:01:44;98897.75;;;-1.16;100.00
4398;BME280;2213;49.720;7.296;2023-03-01T05:04:13;98898.59;;;-1.15;100.00
4398;BME280;2213;49.720;7.296;2023-03-01T05:06:43;98903.72;;;-1.15;100.00
4398;BME280;2213;49.720;7.296;2023-03-01T05:09:13;98908.09;;;-1.17;100.00
4398;BME280;2213;49.720;7.296;2023-03-01T05:11:44;98911.22;;;-1.12;100.00
4398;BME280;2213;49.720;7.296;2023-03-01T05:14:13;98904.44;;;-1.13;100.00
4398;BME280;2213;49.720;7.296;2023-03-01T05:16:45;98910.19;;;-1.10;100.00
4398;BME280;2213;49.720;7.296;2023-03-01T05:19:14;98905.06;;;-1.10;100.00
4398;BME280;2213;49.720;7.296;2023-03-01T05:21:44;98895.63;;;-1.09;100.00
4398;BME280;2213;49.720;7.296;2023-03-01T05:24:35;98895.81;;;-1.12;100.00
4398;BME280;2213;49.720;7.296;2023-03-01T05:27:05;98892.34;;;-1.11;100.00
4398;BME280;2213;49.720;7.296;2023-03-01T05:29:36;98893.06;;;-1.09;100.00
4398;BME280;2213;49.720;7.296;2023-03-01T05:32:09;98889.88;;;-1.13;100.00
4398;BME280;2213;49.720;7.296;2023-03-01T05:34:44;98884.09;;;-1.16;100.00
4398;BME280;2213;49.720;7.296;2023-03-01T05:37:15;98895.63;;;-1.09;100.00
4398;BME280;2213;49.720;7.296;2023-03-01T05:39:44;98887.03;;;-1.08;100.00
4398;BME280;2213;49.720;7.296;2023-03-01T05:42:16;98882.81;;;-1.09;100.00
4398;BME280;2213;49.720;7.296;2023-03-01T05:44:47;98880.25;;;-1.09;100.00
4398;BME280;2213;49.720;7.296;2023-03-01T05:47:18;98871.06;;;-1.13;100.00
4398;BME280;2213;49.720;7.296;2023-03-01T05:49:48;98877.56;;;-1.08;100.00
4398;BME280;2213;49.720;7.296;2023-03-01T05:52:17;98883.72;;;-1.10;100.00
4398;BME280;2213;49.720;7.296;2023-03-01T05:54:46;98886.38;;;-1.12;100.00
4398;BME280;2213;49.720;7.296;2023-03-01T05:57:17;98881.16;;;-1.10;100.00
4398;BME280;2213;49.720;7.296;2023-03-01T05:59:46;98878.78;;;-1.13;100.00
4398;BME280;2213;49.720;7.296;2023-03-01T06:02:18;98886.38;;;-1.12;100.00
4398;BME280;2213;49.720;7.296;2023-03-01T06:04:48;98881.34;;;-1.13;100.00
4398;BME280;2213;49.720;7.296;2023-03-01T06:07:18;98880.25;;;-1.09;100.00
4398;BME280;2213;49.720;7.296;2023-03-01T06:09:48;98884.53;;;-1.10;100.00
4398;BME280;2213;49.720;7.296;2023-03-01T06:12:18;98881.25;;;-1.12;100.00
4398;BME280;2213;49.720;7.296;2023-03-01T06:14:47;98883.91;;;-1.13;100.00
4398;BME280;2213;49.720;7.296;2023-03-01T06:17:18;98886.47;;;-1.13;100.00
4398;BME280;2213;49.720;7.296;2023-03-01T06:19:48;98888.41;;;-1.17;100.00
4398;BME280;2213;49.720;7.296;2023-03-01T06:22:18;98891.72;;;-1.15;100.00
4398;BME280;2213;49.720;7.296;2023-03-01T06:24:48;98888.41;;;-1.17;100.00
4398;BME280;2213;49.720;7.296;2023-03-01T06:27:18;98890.69;;;-1.12;100.00
4398;BME280;2213;49.720;7.296;2023-03-01T06:29:47;98890.78;;;-1.14;100.00
4398;BME280;2213;49.720;7.296;2023-03-01T06:32:18;98888.84;;;-1.10;100.00
4398;BME280;2213;49.720;7.296;2023-03-01T06:34:48;98882.69;;;-1.08;100.00
4398;BME280;2213;49.720;7.296;2023-03-01T06:37:17;98884.28;;;-1.05;100.00
4398;BME280;2213;49.720;7.296;2023-03-01T06:39:46;98881.72;;;-1.05;100.00
4398;BME280;2213;49.720;7.296;2023-03-01T06:42:15;98885.00;;;-1.03;100.00
4398;BME280;2213;49.720;7.296;2023-03-01T06:44:44;98879.03;;;-1.04;100.00
4398;BME280;2213;49.720;7.296;2023-03-01T06:47:14;98879.78;;;-1.02;100.00
4398;BME280;2213;49.720;7.296;2023-03-01T06:49:46;98873.63;;;-0.99;100.00
4398;BME280;2213;49.720;7.296;2023-03-01T06:52:16;98867.38;;;-0.95;100.00
4398;BME280;2213;49.720;7.296;2023-03-01T06:54:45;98869.94;;;-0.95;100.00
4398;BME280;2213;49.720;7.296;2023-03-01T06:57:15;98863.78;;;-0.92;100.00
4398;BME280;2213;49.720;7.296;2023-03-01T06:59:46;98859.28;;;-0.89;100.00
4398;BME280;2213;49.720;7.296;2023-03-01T07:02:17;98856.66;;;-0.87;100.00
4398;BME280;2213;49.720;7.296;2023-03-01T07:04:50;98855.91;;;-0.89;100.00
4398;BME280;2213;49.720;7.296;2023-03-01T07:07:20;98863.53;;;-0.88;100.00
4398;BME280;2213;49.720;7.296;2023-03-01T07:09:50;98857.28;;;-0.84;100.00
4398;BME280;2213;49.720;7.296;2023-03-01T07:12:21;98869.91;;;-0.81;100.00
4398;BME280;2213;49.720;7.296;2023-03-01T07:14:51;98870.56;;;-0.77;100.00
4398;BME280;2213;49.720;7.296;2023-03-01T07:17:21;98871.19;;;-0.74;100.00
4398;BME280;2213;49.720;7.296;2023-03-01T07:19:52;98867.50;;;-0.70;100.00
4398;BME280;2213;49.720;7.296;2023-03-01T07:22:23;98875.94;;;-0.68;100.00
4398;BME280;2213;49.720;7.296;2023-03-01T07:24:54;98876.56;;;-0.64;100.00
4398;BME280;2213;49.720;7.296;2023-03-01T07:27:24;98868.78;;;-0.63;100.00
4398;BME280;2213;49.720;7.296;2023-03-01T07:29:53;98869.41;;;-0.59;100.00
4398;BME280;2213;49.720;7.296;2023-03-01T07:32:23;98865.81;;;-0.57;100.00
4398;BME280;2213;49.720;7.296;2023-03-01T07:34:54;98864.06;;;-0.56;100.00
4398;BME280;2213;49.720;7.296;2023-03-01T07:37:24;98868.19;;;-0.54;100.00
4398;BME280;2213;49.720;7.296;2023-03-01T07:39:53;98862.03;;;-0.51;100.00
4398;BME280;2213;49.720;7.296;2023-03-01T07:42:22;98864.50;;;-0.49;100.00
4398;BME280;2213;49.720;7.296;2023-03-01T07:44:53;98858.41;;;-0.48;100.00
4398;BME280;2213;49.720;7.296;2023-03-01T07:47:23;98857.50;;;-0.47;100.00
4398;BME280;2213;49.720;7.296;2023-03-01T07:49:55;98859.16;;;-0.46;100.00
4398;BME280;2213;49.720;7.296;2023-03-01T07:52:25;98857.31;;;-0.44;100.00
4398;BME280;2213;49.720;7.296;2023-03-01T07:54:54;98859.16;;;-0.46;100.00
4398;BME280;2213;49.720;7.296;2023-03-01T07:57:25;98857.03;;;-0.40;100.00
4398;BME280;2213;49.720;7.296;2023-03-01T07:59:55;98859.38;;;-0.37;100.00
4398;BME280;2213;49.720;7.296;2023-03-01T08:02:26;98860.31;;;-0.38;100.00
4398;BME280;2213;49.720;7.296;2023-03-01T08:04:58;98860.03;;;-0.33;100.00
4398;BME280;2213;49.720;7.296;2023-03-01T08:07:27;98851.41;;;-0.32;100.00
4398;BME280;2213;49.720;7.296;2023-03-01T08:09:57;98859.81;;;-0.30;100.00
4398;BME280;2213;49.720;7.296;2023-03-01T08:12:26;98841.75;;;-0.29;100.00
4398;BME280;2213;49.720;7.296;2023-03-01T08:14:56;98841.44;;;-0.24;100.00
4398;BME280;2213;49.720;7.296;2023-03-01T08:17:26;98837.75;;;-0.20;100.00
4398;BME280;2213;49.720;7.296;2023-03-01T08:19:57;98838.28;;;-0.15;100.00
4398;BME280;2213;49.720;7.296;2023-03-01T08:22:27;98835.28;;;-0.09;100.00
4398;BME280;2213;49.720;7.296;2023-03-01T08:24:57;98827.16;;;-0.03;100.00
4398;BME280;2213;49.720;7.296;2023-03-01T08:27:28;98825.00;;;0.04;100.00
4398;BME280;2213;49.720;7.296;2023-03-01T08:29:57;98826.16;;;0.12;100.00
4398;BME280;2213;49.720;7.296;2023-03-01T08:32:27;98826.78;;;0.16;100.00
4398;BME280;2213;49.720;7.296;2023-03-01T08:34:57;98818.56;;;0.23;100.00
4398;BME280;2213;49.720;7.296;2023-03-01T08:37:26;98820.63;;;0.31;100.00
4398;BME280;2213;49.720;7.296;2023-03-01T08:39:59;98823.69;;;0.36;100.00
4398;BME280;2213;49.720;7.296;2023-03-01T08:42:29;98813.59;;;0.45;100.00
4398;BME280;2213;49.720;7.296;2023-03-01T08:44:59;98817.16;;;0.56;100.00
4398;BME280;2213;49.720;7.296;2023-03-01T08:47:30;98811.41;;;0.65;100.00
4398;BME280;2213;49.720;7.296;2023-03-01T08:50:04;98815.00;;;0.75;100.00
4398;BME280;2213;49.720;7.296;2023-03-01T08:52:35;98799.84;;;0.83;100.00
4398;BME280;2213;49.720;7.296;2023-03-01T08:55:08;98815.34;;;0.94;100.00
4398;BME280;2213;49.720;7.296;2023-03-01T08:57:38;98814.72;;;1.03;100.00
4398;BME280;2213;49.720;7.296;2023-03-01T09:00:10;98808.88;;;1.12;100.00
4398;BME280;2213;49.720;7.296;2023-03-01T09:02:42;98811.53;;;1.23;100.00
4398;BME280;2213;49.720;7.296;2023-03-01T09:05:14;98807.59;;;1.30;100.00
4398;BME280;2213;49.720;7.296;2023-03-01T09:07:46;98798.56;;;1.36;100.00
4398;BME280;2213;49.720;7.296;2023-03-01T09:10:17;98792.78;;;1.45;100.00
4398;BME280;2213;49.720;7.296;2023-03-01T09:12:46;98793.84;;;1.53;100.00
4398;BME280;2213;49.720;7.296;2023-03-01T09:15:17;98799.72;;;1.56;100.00
4398;BME280;2213;49.720;7.296;2023-03-01T09:17:47;98794.34;;;1.59;100.00
4398;BME280;2213;49.720;7.296;2023-03-01T09:20:18;98790.63;;;1.63;100.00
4398;BME280;2213;49.720;7.296;2023-03-01T09:22:48;98775.97;;;1.63;100.00
4398;BME280;2213;49.720;7.296;2023-03-01T09:25:18;98781.50;;;1.70;100.00
4398;BME280;2213;49.720;7.296;2023-03-01T09:27:50;98771.88;;;1.72;100.00
4398;BME280;2213;49.720;7.296;2023-03-01T09:30:21;98775.88;;;1.76;100.00
4398;BME280;2213;49.720;7.296;2023-03-01T09:32:52;98759.50;;;1.77;100.00
4398;BME280;2213;49.720;7.296;2023-03-01T09:35:24;98768.50;;;1.82;100.00
4398;BME280;2213;49.720;7.296;2023-03-01T09:37:53;98770.25;;;1.82;100.00
4398;BME280;2213;49.720;7.296;2023-03-01T09:40:26;98774.94;;;1.88;100.00
4398;BME280;2213;49.720;7.296;2023-03-01T09:43:08;98769.56;;;1.91;100.00
4398;BME280;2213;49.720;7.296;2023-03-01T09:45:47;98770.28;;;1.93;100.00
4398;BME280;2213;49.720;7.296;2023-03-01T09:48:24;98757.16;;;1.96;100.00
4398;BME280;2213;49.720;7.296;2023-03-01T09:50:57;98760.09;;;2.02;100.00
4398;BME280;2213;49.720;7.296;2023-03-01T09:53:33;98751.44;;;2.03;100.00
4398;BME280;2213;49.720;7.296;2023-03-01T09:56:12;98752.94;;;2.06;100.00
4398;BME280;2213;49.720;7.296;2023-03-01T09:58:56;98752.47;;;2.12;100.00
4398;BME280;2213;49.720;7.296;2023-03-01T10:01:32;98761.38;;;2.19;100.00
4398;BME280;2213;49.720;7.296;2023-03-01T10:04:26;98754.38;;;2.21;100.00
4398;BME280;2213;49.720;7.296;2023-03-01T10:07:17;98745.69;;;2.22;100.00
4398;BME280;2213;49.720;7.296;2023-03-01T10:09:50;98755.66;;;2.27;100.00
4398;BME280;2213;49.720;7.296;2023-03-01T10:12:25;98747.66;;;2.30;100.00
4398;BME280;2213;49.720;7.296;2023-03-01T10:15:02;98744.75;;;2.34;100.00
4398;BME280;2213;49.720;7.296;2023-03-01T10:17:39;98739.34;;;2.37;100.00
4398;BME280;2213;49.720;7.296;2023-03-01T10:20:22;98755.19;;;2.44;100.00
4398;BME280;2213;49.720;7.296;2023-03-01T10:22:54;98743.00;;;2.46;100.00
4398;BME280;2213;49.720;7.296;2023-03-01T10:25:40;98743.44;;;2.51;100.00
4398;BME280;2213;49.720;7.296;2023-03-01T10:28:18;98744.03;;;2.54;100.00
4398;BME280;2213;49.720;7.296;2023-03-01T10:30:50;98736.75;;;2.60;100.00
4398;BME280;2213;49.720;7.296;2023-03-01T10:33:24;98743.31;;;2.64;100.00
4398;BME280;2213;49.720;7.296;2023-03-01T10:35:56;98724.19;;;2.66;100.00
4398;BME280;2213;49.720;7.296;2023-03-01T10:38:30;98729.00;;;2.71;99.90
4398;BME280;2213;49.720;7.296;2023-03-01T10:41:06;98725.09;;;2.76;100.00
4398;BME280;2213;49.720;7.296;2023-03-01T10:43:45;98712.63;;;2.81;99.47
4398;BME280;2213;49.720;7.296;2023-03-01T10:46:31;98711.59;;;2.84;98.97
4398;BME280;2213;49.720;7.296;2023-03-01T10:49:15;98716.34;;;2.88;98.64
4398;BME280;2213;49.720;7.296;2023-03-01T10:51:47;98706.50;;;2.93;97.71
4398;BME280;2213;49.720;7.296;2023-03-01T10:54:22;98704.59;;;2.95;95.73
4398;BME280;2213;49.720;7.296;2023-03-01T10:56:57;98698.72;;;3.04;95.01
4398;BME280;2213;49.720;7.296;2023-03-01T10:59:30;98690.56;;;3.09;93.07
4398;BME280;2213;49.720;7.296;2023-03-01T11:02:23;98691.97;;;3.13;94.08
4398;BME280;2213;49.720;7.296;2023-03-01T11:05:01;98695.84;;;3.19;94.21
4398;BME280;2213;49.720;7.296;2023-03-01T11:07:30;98686.91;;;3.23;94.05
4398;BME280;2213;49.720;7.296;2023-03-01T11:10:15;98688.16;;;3.28;92.53
4398;BME280;2213;49.720;7.296;2023-03-01T11:12:46;98678.38;;;3.32;90.96
4398;BME280;2213;49.720;7.296;2023-03-01T11:15:24;98681.28;;;3.38;90.50
4398;BME280;2213;49.720;7.296;2023-03-01T11:17:55;98666.06;;;3.45;89.74
4398;BME280;2213;49.720;7.296;2023-03-01T11:20:41;98677.25;;;3.45;89.17
4398;BME280;2213;49.720;7.296;2023-03-01T11:23:13;98673.56;;;3.48;89.30
4398;BME280;2213;49.720;7.296;2023-03-01T11:25:58;98674.03;;;3.53;88.59
4398;BME280;2213;49.720;7.296;2023-03-01T11:28:29;98675.53;;;3.55;87.77
4398;BME280;2213;49.720;7.296;2023-03-01T11:31:03;98672.16;;;3.65;86.65
4398;BME280;2213;49.720;7.296;2023-03-01T11:33:44;98656.16;;;3.71;85.53
4398;BME280;2213;49.720;7.296;2023-03-01T11:36:28;98659.16;;;3.76;85.26
4398;BME280;2213;49.720;7.296;2023-03-01T11:39:16;98649.25;;;3.81;86.00
4398;BME280;2213;49.720;7.296;2023-03-01T11:42:02;98644.50;;;3.86;85.98
4398;BME280;2213;49.720;7.296;2023-03-01T11:44:48;98649.41;;;3.89;84.86
4398;BME280;2213;49.720;7.296;2023-03-01T11:47:37;98651.63;;;3.93;84.91
4398;BME280;2213;49.720;7.296;2023-03-01T11:50:27;98659.81;;;3.98;84.53
4398;BME280;2213;49.720;7.296;2023-03-01T11:53:29;98653.44;;;4.02;83.89
4398;BME280;2213;49.720;7.296;2023-03-01T11:56:16;98663.25;;;4.09;82.74
4398;BME280;2213;49.720;7.296;2023-03-01T11:59:32;98646.75;;;4.10;82.19
4398;BME280;2213;49.720;7.296;2023-03-01T12:03:00;98637.13;;;4.12;83.23
4398;BME280;2213;49.720;7.296;2023-03-01T12:09:15;98625.03;;;4.22;82.64
4398;BME280;2213;49.720;7.296;2023-03-01T12:12:17;98612.63;;;4.25;81.72
4398;BME280;2213;49.720;7.296;2023-03-01T12:15:15;98617.41;;;4.30;81.64
4398;BME280;2213;49.720;7.296;2023-03-01T12:18:37;98612.53;;;4.36;81.68
4398;BME280;2213;49.720;7.296;2023-03-01T12:21:26;98619.31;;;4.37;81.28
4398;BME280;2213;49.720;7.296;2023-03-01T12:24:39;98607.75;;;4.41;81.94
4398;BME280;2213;49.720;7.296;2023-03-01T12:27:51;98605.03;;;4.52;80.62
4398;BME280;2213;49.720;7.296;2023-03-01T12:30:42;98600.28;;;4.57;80.31
4398;BME280;2213;49.720;7.296;2023-03-01T12:33:30;98596.72;;;4.58;80.29
4398;BME280;2213;49.720;7.296;2023-03-01T12:36:39;98592.25;;;4.61;80.47
4398;BME280;2213;49.720;7.296;2023-03-01T12:39:38;98588.56;;;4.63;79.97
4398;BME280;2213;49.720;7.296;2023-03-01T12:42:26;98580.38;;;4.68;80.35
4398;BME280;2213;49.720;7.296;2023-03-01T12:45:24;98573.69;;;4.75;79.45
4398;BME280;2213;49.720;7.296;2023-03-01T12:48:16;98554.75;;;4.74;79.01
4398;BME280;2213;49.720;7.296;2023-03-01T12:50:54;98541.91;;;4.73;78.97
4398;BME280;2213;49.720;7.296;2023-03-01T12:53:28;98544.94;;;4.78;79.11
4398;BME280;2213;49.720;7.296;2023-03-01T12:56:04;98533.06;;;4.85;79.70
4398;BME280;2213;49.720;7.296;2023-03-01T12:58:41;98537.97;;;4.88;79.73
4398;BME280;2213;49.720;7.296;2023-03-01T13:01:35;98534.97;;;4.92;79.73
4398;BME280;2213;49.720;7.296;2023-03-01T13:04:35;98525.38;;;4.93;79.15
4398;BME280;2213;49.720;7.296;2023-03-01T13:07:22;98520.63;;;4.98;79.97
4398;BME280;2213;49.720;7.296;2023-03-01T13:10:10;98524.28;;;5.05;79.98
4398;BME280;2213;49.720;7.296;2023-03-01T13:13:01;98528.22;;;5.09;79.56
4398;BME280;2213;49.720;7.296;2023-03-01T13:15:55;98520.03;;;5.14;79.68
4398;BME280;2213;49.720;7.296;2023-03-01T13:18:32;98510.22;;;5.17;79.18
4398;BME280;2213;49.720;7.296;2023-03-01T13:21:04;98505.69;;;5.19;79.00
4398;BME280;2213;49.720;7.296;2023-03-01T13:23:37;98503.47;;;5.24;77.69
4398;BME280;2213;49.720;7.296;2023-03-01T13:26:15;98514.53;;;5.26;77.28
4398;BME280;2213;49.720;7.296;2023-03-01T13:28:56;98500.03;;;5.33;76.18
4398;BME280;2213;49.720;7.296;2023-03-01T13:31:57;98508.19;;;5.38;75.46
4398;BME280;2213;49.720;7.296;2023-03-01T13:34:47;98504.34;;;5.42;75.40
4398;BME280;2213;49.720;7.296;2023-03-01T13:37:31;98506.25;;;5.50;73.44
4398;BME280;2213;49.720;7.296;2023-03-01T13:40:59;98489.28;;;5.55;74.02
4398;BME280;2213;49.720;7.296;2023-03-01T13:43:32;98482.72;;;5.61;73.12
4398;BME280;2213;49.720;7.296;2023-03-01T13:46:11;98462.78;;;5.62;73.57
4398;BME280;2213;49.720;7.296;2023-03-01T13:48:49;98453.75;;;5.66;73.45
4398;BME280;2213;49.720;7.296;2023-03-01T13:51:25;98464.66;;;5.69;73.67
4398;BME280;2213;49.720;7.296;2023-03-01T13:53:58;98459.41;;;5.79;71.84
4398;BME280;2213;49.720;7.296;2023-03-01T13:56:35;98454.56;;;5.84;71.28
4398;BME280;2213;49.720;7.296;2023-03-01T13:59:13;98472.59;;;5.85;71.96
4398;BME280;2213;49.720;7.296;2023-03-01T14:01:42;98476.28;;;5.92;71.81